createdAt,value
2022-12-11T00:00:01.409Z,1024.8
2022-12-11T00:01:08.733Z,1024.8
2022-12-11T00:02:02.070Z,1024.8
2022-12-11T00:03:01.250Z,1024.8
2022-12-11T00:04:01.393Z,1024.7
2022-12-11T00:05:01.549Z,1024.7
2022-12-11T00:06:04.606Z,1024.7
2022-12-11T00:07:01.662Z,1024.7
2022-12-11T00:08:01.267Z,1024.7
2022-12-11T00:09:01.182Z,1024.7
2022-12-11T00:10:01.725Z,1024.7
2022-12-11T00:11:02.631Z,1024.7
2022-12-11T00:12:01.513Z,1024.7
2022-12-11T00:13:01.648Z,1024.7
2022-12-11T00:14:01.376Z,1024.7
2022-12-11T00:15:01.595Z,1024.6
2022-12-11T00:16:01.170Z,1024.6
2022-12-11T00:17:01.542Z,1024.6
2022-12-11T00:18:01.316Z,1024.6
2022-12-11T00:19:01.725Z,1024.6
2022-12-11T00:20:01.215Z,1024.5
2022-12-11T00:21:02.297Z,1024.5
2022-12-11T00:22:01.535Z,1024.5
2022-12-11T00:23:01.188Z,1024.5
2022-12-11T00:24:01.624Z,1024.5
2022-12-11T00:25:01.521Z,1024.5
2022-12-11T00:26:05.687Z,1024.5
2022-12-11T00:27:01.538Z,1024.4
2022-12-11T00:28:01.523Z,1024.4
2022-12-11T00:29:01.560Z,1024.4
2022-12-11T00:30:01.569Z,1024.4
2022-12-11T00:31:03.876Z,1024.4
2022-12-11T00:32:01.250Z,1024.4
2022-12-11T00:33:01.168Z,1024.4
2022-12-11T00:34:01.808Z,1024.3
2022-12-11T00:35:01.981Z,1024.2
2022-12-11T00:36:01.973Z,1024.2
2022-12-11T00:37:01.527Z,1024.1
2022-12-11T00:38:01.187Z,1024.1
2022-12-11T00:39:02.496Z,1024.1
2022-12-11T00:40:01.226Z,1024.1
2022-12-11T00:41:01.188Z,1024.1
2022-12-11T00:42:01.181Z,1024.0
2022-12-11T00:43:02.115Z,1024.0
2022-12-11T00:44:02.019Z,1023.9
2022-12-11T00:45:01.543Z,1023.9
2022-12-11T00:46:01.870Z,1023.9
2022-12-11T00:47:01.577Z,1023.9
2022-12-11T00:48:01.407Z,1023.8
2022-12-11T00:49:01.657Z,1023.7
2022-12-11T00:50:03.075Z,1023.7
2022-12-11T00:51:01.671Z,1023.6
2022-12-11T00:52:01.177Z,1023.6
2022-12-11T00:53:01.757Z,1023.6
2022-12-11T00:54:01.210Z,1023.6
2022-12-11T00:55:01.531Z,1023.6
2022-12-11T00:56:01.184Z,1023.6
2022-12-11T00:57:02.620Z,1023.6
2022-12-11T00:58:01.179Z,1023.5
2022-12-11T00:59:01.624Z,1023.5
2022-12-11T01:00:01.194Z,1023.5
2022-12-11T01:01:06.313Z,1023.4
2022-12-11T01:02:01.185Z,1023.4
2022-12-11T01:03:02.084Z,1023.4
2022-12-11T01:04:01.211Z,1023.4
2022-12-11T01:05:01.188Z,1023.4
2022-12-11T01:06:01.531Z,1023.4
2022-12-11T01:07:01.191Z,1023.4
2022-12-11T01:08:02.201Z,1023.4
2022-12-11T01:09:01.324Z,1023.3
2022-12-11T01:10:02.413Z,1023.4
2022-12-11T01:11:03.052Z,1023.3
2022-12-11T01:12:01.570Z,1023.4
2022-12-11T01:13:04.601Z,1023.4
2022-12-11T01:14:01.172Z,1023.3
2022-12-11T01:15:01.271Z,1023.3
2022-12-11T01:16:06.310Z,1023.3
2022-12-11T01:17:01.602Z,1023.4
2022-12-11T01:18:01.212Z,1023.3
2022-12-11T01:19:01.562Z,1023.3
2022-12-11T01:20:01.563Z,1023.3
2022-12-11T01:21:04.881Z,1023.3
2022-12-11T01:22:01.505Z,1023.4
2022-12-11T01:23:01.198Z,1023.4
2022-12-11T01:24:02.115Z,1023.3
2022-12-11T01:25:01.190Z,1023.3
2022-12-11T01:26:07.547Z,1023.3
2022-12-11T01:27:01.187Z,1023.3
2022-12-11T01:28:01.203Z,1023.3
2022-12-11T01:29:01.583Z,1023.3
2022-12-11T01:30:02.557Z,1023.3
2022-12-11T01:31:01.369Z,1023.4
2022-12-11T01:32:02.087Z,1023.4
2022-12-11T01:33:01.693Z,1023.4
2022-12-11T01:34:01.787Z,1023.3
2022-12-11T01:35:03.205Z,1023.3
2022-12-11T01:36:01.185Z,1023.3
2022-12-11T01:37:01.188Z,1023.3
2022-12-11T01:38:01.538Z,1023.3
2022-12-11T01:39:01.540Z,1023.2
2022-12-11T01:40:02.029Z,1023.2
2022-12-11T01:41:01.429Z,1023.2
2022-12-11T01:42:01.556Z,1023.2
2022-12-11T01:43:01.792Z,1023.3
2022-12-11T01:44:05.064Z,1023.2
2022-12-11T01:45:20.591Z,1023.3
2022-12-11T01:46:01.742Z,1023.2
2022-12-11T01:47:01.612Z,1023.2
2022-12-11T01:48:07.524Z,1023.2
2022-12-11T01:49:05.275Z,1023.1
2022-12-11T01:50:01.732Z,1023.1
2022-12-11T01:51:04.879Z,1023.1
2022-12-11T01:52:05.385Z,1023.1
2022-12-11T01:53:03.763Z,1023.2
2022-12-11T01:54:06.972Z,1023.2
2022-12-11T01:55:01.847Z,1023.2
2022-12-11T01:56:02.453Z,1023.2
2022-12-11T01:57:06.004Z,1023.2
2022-12-11T01:58:02.619Z,1023.1
2022-12-11T01:59:04.269Z,1023.1
2022-12-11T02:00:02.099Z,1023.1
2022-12-11T02:01:02.397Z,1023.1
2022-12-11T02:02:06.545Z,1023.1
2022-12-11T02:03:01.217Z,1023.1
2022-12-11T02:04:02.417Z,1023.0
2022-12-11T02:05:03.048Z,1023.0
2022-12-11T02:06:01.582Z,1023.1
2022-12-11T02:07:01.228Z,1023.0
2022-12-11T02:08:02.763Z,1023.0
2022-12-11T02:09:02.655Z,1023.0
2022-12-11T02:10:01.241Z,1023.0
2022-12-11T02:11:09.072Z,1022.9
2022-12-11T02:12:08.083Z,1022.9
2022-12-11T02:13:12.325Z,1022.9
2022-12-11T02:14:09.637Z,1022.9
2022-12-11T02:15:11.758Z,1022.9
2022-12-11T02:16:11.350Z,1022.9
2022-12-11T02:17:09.850Z,1022.9
2022-12-11T02:18:13.520Z,1022.9
2022-12-11T02:19:09.672Z,1022.9
2022-12-11T02:20:07.496Z,1022.9
2022-12-11T02:21:09.941Z,1022.8
2022-12-11T02:22:08.639Z,1022.8
2022-12-11T02:23:18.819Z,1022.8
2022-12-11T02:24:20.937Z,1022.7
2022-12-11T02:25:13.388Z,1022.7
2022-12-11T02:26:17.265Z,1022.7
2022-12-11T02:27:17.780Z,1022.7
2022-12-11T02:28:17.702Z,1022.6
2022-12-11T02:29:04.416Z,1022.6
2022-12-11T02:30:04.301Z,1022.6
2022-12-11T02:31:06.431Z,1022.6
2022-12-11T02:32:06.041Z,1022.6
2022-12-11T02:33:01.325Z,1022.6
2022-12-11T02:34:08.180Z,1022.6
2022-12-11T02:35:08.189Z,1022.6
2022-12-11T02:36:04.245Z,1022.6
2022-12-11T02:37:06.881Z,1022.6
2022-12-11T02:38:08.246Z,1022.7
2022-12-11T02:39:04.740Z,1022.6
2022-12-11T02:40:06.782Z,1022.6
2022-12-11T02:41:04.773Z,1022.6
2022-12-11T02:42:03.355Z,1022.5
2022-12-11T02:43:05.836Z,1022.5
2022-12-11T02:44:03.644Z,1022.6
2022-12-11T02:45:03.948Z,1022.6
2022-12-11T02:46:05.392Z,1022.7
2022-12-11T02:47:04.578Z,1022.8
2022-12-11T02:48:04.348Z,1022.8
2022-12-11T02:49:06.091Z,1022.8
2022-12-11T02:50:07.203Z,1022.8
2022-12-11T02:51:04.849Z,1022.8
2022-12-11T02:52:04.714Z,1022.7
2022-12-11T02:53:05.803Z,1022.7
2022-12-11T02:54:04.186Z,1022.7
2022-12-11T02:55:06.196Z,1022.7
2022-12-11T02:56:08.662Z,1022.7
2022-12-11T02:57:05.680Z,1022.7
2022-12-11T02:58:07.235Z,1022.7
2022-12-11T02:59:08.348Z,1022.8
2022-12-11T03:00:01.963Z,1022.7
2022-12-11T03:01:01.620Z,1022.8
2022-12-11T03:02:01.962Z,1022.8
2022-12-11T03:03:02.182Z,1022.8
2022-12-11T03:04:01.377Z,1022.8
2022-12-11T03:05:01.197Z,1022.9
2022-12-11T03:06:01.187Z,1022.9
2022-12-11T03:07:06.146Z,1022.9
2022-12-11T03:08:02.479Z,1022.9
2022-12-11T03:09:03.410Z,1022.9
2022-12-11T03:10:01.772Z,1022.9
2022-12-11T03:11:01.803Z,1023.0
2022-12-11T03:12:01.195Z,1023.0
2022-12-11T03:13:02.392Z,1023.0
2022-12-11T03:14:02.782Z,1023.0
2022-12-11T03:15:05.313Z,1023.0
2022-12-11T03:16:11.286Z,1023.0
2022-12-11T03:17:11.556Z,1023.1
2022-12-11T03:18:08.978Z,1023.1
2022-12-11T03:19:09.881Z,1023.1
2022-12-11T03:20:10.411Z,1023.1
2022-12-11T03:21:06.457Z,1023.1
2022-12-11T03:22:09.981Z,1023.2
2022-12-11T03:23:08.635Z,1023.1
2022-12-11T03:24:07.216Z,1023.2
2022-12-11T03:25:06.297Z,1023.2
2022-12-11T03:26:04.555Z,1023.3
2022-12-11T03:27:11.106Z,1023.3
2022-12-11T03:28:07.638Z,1023.3
2022-12-11T03:29:08.880Z,1023.3
2022-12-11T03:30:05.434Z,1023.4
2022-12-11T03:31:08.106Z,1023.4
2022-12-11T03:32:08.375Z,1023.5
2022-12-11T03:33:05.971Z,1023.5
2022-12-11T03:34:09.017Z,1023.4
2022-12-11T03:35:07.020Z,1023.5
2022-12-11T03:36:07.689Z,1023.5
2022-12-11T03:37:04.408Z,1023.5
2022-12-11T03:38:08.638Z,1023.6
2022-12-11T03:39:06.446Z,1023.6
2022-12-11T03:40:05.547Z,1023.7
2022-12-11T03:41:04.465Z,1023.8
2022-12-11T03:42:05.254Z,1023.8
2022-12-11T03:43:03.256Z,1023.8
2022-12-11T03:44:01.986Z,1023.8
2022-12-11T03:45:04.214Z,1023.8
2022-12-11T03:46:01.998Z,1023.9
2022-12-11T03:47:04.610Z,1023.9
2022-12-11T03:48:02.524Z,1023.9
2022-12-11T03:49:06.823Z,1023.9
2022-12-11T03:50:04.705Z,1023.9
2022-12-11T03:51:05.158Z,1023.9
2022-12-11T03:52:04.238Z,1023.9
2022-12-11T03:53:03.826Z,1023.9
2022-12-11T03:54:02.619Z,1023.9
2022-12-11T03:55:05.935Z,1023.9
2022-12-11T03:56:04.504Z,1023.9
2022-12-11T03:57:05.070Z,1023.9
2022-12-11T03:58:01.234Z,1023.9
2022-12-11T03:59:01.183Z,1023.8
2022-12-11T04:00:01.823Z,1023.8
2022-12-11T04:01:01.527Z,1023.8
2022-12-11T04:02:01.274Z,1023.8
2022-12-11T04:03:01.912Z,1023.7
2022-12-11T04:04:01.236Z,1023.7
2022-12-11T04:05:01.835Z,1023.7
2022-12-11T04:06:01.417Z,1023.6
2022-12-11T04:07:01.194Z,1023.6
2022-12-11T04:08:02.033Z,1023.6
2022-12-11T04:09:01.538Z,1023.6
2022-12-11T04:10:03.218Z,1023.6
2022-12-11T04:11:03.026Z,1023.6
2022-12-11T04:12:01.527Z,1023.6
2022-12-11T04:13:01.389Z,1023.6
2022-12-11T04:14:02.245Z,1023.6
2022-12-11T04:15:01.183Z,1023.6
2022-12-11T04:16:01.208Z,1023.6
2022-12-11T04:17:01.474Z,1023.6
2022-12-11T04:18:01.569Z,1023.6
2022-12-11T04:19:01.517Z,1023.6
2022-12-11T04:20:01.961Z,1023.6
2022-12-11T04:21:01.187Z,1023.6
2022-12-11T04:22:01.784Z,1023.5
2022-12-11T04:23:04.036Z,1023.6
2022-12-11T04:24:01.607Z,1023.6
2022-12-11T04:25:03.464Z,1023.6
2022-12-11T04:26:04.399Z,1023.6
2022-12-11T04:27:01.513Z,1023.6
2022-12-11T04:28:01.656Z,1023.5
2022-12-11T04:29:01.522Z,1023.6
2022-12-11T04:30:02.046Z,1023.6
2022-12-11T04:31:01.652Z,1023.6
2022-12-11T04:32:01.220Z,1023.6
2022-12-11T04:33:01.211Z,1023.6
2022-12-11T04:34:01.244Z,1023.5
2022-12-11T04:35:01.220Z,1023.5
2022-12-11T04:36:01.578Z,1023.5
2022-12-11T04:37:01.186Z,1023.5
2022-12-11T04:38:01.175Z,1023.5
2022-12-11T04:39:01.499Z,1023.5
2022-12-11T04:40:01.558Z,1023.5
2022-12-11T04:41:04.080Z,1023.5
2022-12-11T04:42:01.167Z,1023.5
2022-12-11T04:43:01.881Z,1023.4
2022-12-11T04:44:01.520Z,1023.4
2022-12-11T04:45:01.613Z,1023.4
2022-12-11T04:46:03.157Z,1023.4
2022-12-11T04:47:01.517Z,1023.4
2022-12-11T04:48:01.663Z,1023.3
2022-12-11T04:49:01.182Z,1023.4
2022-12-11T04:50:01.853Z,1023.3
2022-12-11T04:51:01.221Z,1023.4
2022-12-11T04:52:02.039Z,1023.4
2022-12-11T04:53:01.191Z,1023.4
2022-12-11T04:54:01.524Z,1023.4
2022-12-11T04:55:02.920Z,1023.4
2022-12-11T04:56:03.901Z,1023.4
2022-12-11T04:57:01.525Z,1023.4
2022-12-11T04:58:01.678Z,1023.5
2022-12-11T04:59:01.520Z,1023.5
2022-12-11T05:00:01.642Z,1023.4
2022-12-11T05:01:06.620Z,1023.5
2022-12-11T05:02:01.258Z,1023.5
2022-12-11T05:03:01.217Z,1023.5
2022-12-11T05:04:01.861Z,1023.5
2022-12-11T05:05:02.053Z,1023.5
2022-12-11T05:06:01.562Z,1023.6
2022-12-11T05:07:01.708Z,1023.5
2022-12-11T05:08:01.705Z,1023.5
2022-12-11T05:09:01.176Z,1023.5
2022-12-11T05:10:01.513Z,1023.5
2022-12-11T05:11:04.178Z,1023.5
2022-12-11T05:12:02.022Z,1023.5
2022-12-11T05:13:01.182Z,1023.5
2022-12-11T05:14:01.178Z,1023.5
2022-12-11T05:15:01.780Z,1023.4
2022-12-11T05:16:03.520Z,1023.5
2022-12-11T05:17:01.533Z,1023.5
2022-12-11T05:18:01.166Z,1023.4
2022-12-11T05:19:01.195Z,1023.4
2022-12-11T05:20:01.513Z,1023.4
2022-12-11T05:21:04.772Z,1023.4
2022-12-11T05:22:01.586Z,1023.4
2022-12-11T05:23:01.782Z,1023.4
2022-12-11T05:24:01.633Z,1023.4
2022-12-11T05:25:01.557Z,1023.4
2022-12-11T05:26:05.211Z,1023.4
2022-12-11T05:27:01.352Z,1023.4
2022-12-11T05:28:01.193Z,1023.4
2022-12-11T05:29:01.300Z,1023.5
2022-12-11T05:30:01.933Z,1023.4
2022-12-11T05:31:04.491Z,1023.4
2022-12-11T05:32:02.693Z,1023.4
2022-12-11T05:33:01.180Z,1023.5
2022-12-11T05:34:01.864Z,1023.4
2022-12-11T05:35:01.177Z,1023.4
2022-12-11T05:36:01.553Z,1023.5
2022-12-11T05:37:01.379Z,1023.5
2022-12-11T05:38:01.177Z,1023.5
2022-12-11T05:39:03.318Z,1023.4
2022-12-11T05:40:01.475Z,1023.5
2022-12-11T05:41:03.541Z,1023.4
2022-12-11T05:42:01.547Z,1023.4
2022-12-11T05:43:01.198Z,1023.4
2022-12-11T05:44:01.514Z,1023.4
2022-12-11T05:45:01.424Z,1023.4
2022-12-11T05:46:05.010Z,1023.4
2022-12-11T05:47:01.229Z,1023.4
2022-12-11T05:48:01.772Z,1023.4
2022-12-11T05:49:01.986Z,1023.4
2022-12-11T05:50:01.684Z,1023.4
2022-12-11T05:51:02.096Z,1023.4
2022-12-11T05:52:01.538Z,1023.4
2022-12-11T05:53:01.169Z,1023.4
2022-12-11T05:54:02.377Z,1023.4
2022-12-11T05:55:01.536Z,1023.3
2022-12-11T05:56:02.630Z,1023.3
2022-12-11T05:57:01.511Z,1023.3
2022-12-11T05:58:01.257Z,1023.3
2022-12-11T05:59:03.476Z,1023.3
2022-12-11T06:00:01.598Z,1023.4
2022-12-11T06:01:06.132Z,1023.4
2022-12-11T06:02:01.426Z,1023.3
2022-12-11T06:03:01.290Z,1023.4
2022-12-11T06:04:02.648Z,1023.4
2022-12-11T06:05:01.194Z,1023.4
2022-12-11T06:06:01.677Z,1023.4
2022-12-11T06:07:01.759Z,1023.4
2022-12-11T06:08:01.246Z,1023.4
2022-12-11T06:09:02.001Z,1023.4
2022-12-11T06:10:01.171Z,1023.4
2022-12-11T06:11:01.971Z,1023.4
2022-12-11T06:12:01.289Z,1023.4
2022-12-11T06:13:01.555Z,1023.4
2022-12-11T06:14:02.974Z,1023.4
2022-12-11T06:15:01.984Z,1023.5
2022-12-11T06:16:03.023Z,1023.5
2022-12-11T06:17:01.540Z,1023.5
2022-12-11T06:18:02.228Z,1023.5
2022-12-11T06:19:01.540Z,1023.5
2022-12-11T06:20:01.313Z,1023.5
2022-12-11T06:21:01.654Z,1023.5
2022-12-11T06:22:01.591Z,1023.5
2022-12-11T06:23:02.361Z,1023.5
2022-12-11T06:24:03.422Z,1023.5
2022-12-11T06:25:01.221Z,1023.4
2022-12-11T06:26:03.202Z,1023.5
2022-12-11T06:27:01.514Z,1023.4
2022-12-11T06:28:01.506Z,1023.4
2022-12-11T06:29:01.770Z,1023.4
2022-12-11T06:30:01.426Z,1023.4
2022-12-11T06:31:01.982Z,1023.4
2022-12-11T06:32:01.201Z,1023.4
2022-12-11T06:33:01.543Z,1023.4
2022-12-11T06:34:01.610Z,1023.4
2022-12-11T06:35:01.665Z,1023.4
2022-12-11T06:36:02.102Z,1023.3
2022-12-11T06:37:01.171Z,1023.3
2022-12-11T06:38:01.785Z,1023.3
2022-12-11T06:39:01.544Z,1023.3
2022-12-11T06:40:01.839Z,1023.3
2022-12-11T06:41:03.787Z,1023.3
2022-12-11T06:42:01.173Z,1023.3
2022-12-11T06:43:01.176Z,1023.3
2022-12-11T06:44:01.555Z,1023.3
2022-12-11T06:45:01.672Z,1023.3
2022-12-11T06:46:04.400Z,1023.3
2022-12-11T06:47:01.307Z,1023.3
2022-12-11T06:48:01.498Z,1023.3
2022-12-11T06:49:01.195Z,1023.3
2022-12-11T06:50:02.199Z,1023.4
2022-12-11T06:51:05.082Z,1023.4
2022-12-11T06:52:01.509Z,1023.3
2022-12-11T06:53:01.172Z,1023.3
2022-12-11T06:54:01.700Z,1023.4
2022-12-11T06:55:01.523Z,1023.3
2022-12-11T06:56:01.739Z,1023.3
2022-12-11T06:57:01.518Z,1023.2
2022-12-11T06:58:01.556Z,1023.3
2022-12-11T06:59:06.940Z,1023.3
2022-12-11T07:00:01.168Z,1023.2
2022-12-11T07:01:01.637Z,1023.3
2022-12-11T07:02:03.313Z,1023.3
2022-12-11T07:03:01.698Z,1023.3
2022-12-11T07:04:01.595Z,1023.3
2022-12-11T07:05:01.496Z,1023.3
2022-12-11T07:06:01.887Z,1023.3
2022-12-11T07:07:01.206Z,1023.3
2022-12-11T07:08:01.697Z,1023.3
2022-12-11T07:09:04.510Z,1023.3
2022-12-11T07:10:08.034Z,1023.3
2022-12-11T07:11:04.126Z,1023.3
2022-12-11T07:12:01.240Z,1023.3
2022-12-11T07:13:01.414Z,1023.4
2022-12-11T07:14:01.178Z,1023.3
2022-12-11T07:15:01.767Z,1023.4
2022-12-11T07:16:02.773Z,1023.4
2022-12-11T07:17:01.601Z,1023.4
2022-12-11T07:18:01.182Z,1023.4
2022-12-11T07:19:01.199Z,1023.4
2022-12-11T07:20:01.549Z,1023.4
2022-12-11T07:21:01.518Z,1023.4
2022-12-11T07:22:01.521Z,1023.4
2022-12-11T07:23:01.171Z,1023.4
2022-12-11T07:24:02.116Z,1023.4
2022-12-11T07:25:01.523Z,1023.4
2022-12-11T07:26:03.979Z,1023.4
2022-12-11T07:27:01.513Z,1023.5
2022-12-11T07:28:01.174Z,1023.4
2022-12-11T07:29:01.753Z,1023.4
2022-12-11T07:30:01.188Z,1023.4
2022-12-11T07:31:05.464Z,1023.4
2022-12-11T07:32:01.792Z,1023.5
2022-12-11T07:33:01.568Z,1023.4
2022-12-11T07:34:04.201Z,1023.5
2022-12-11T07:35:01.548Z,1023.4
2022-12-11T07:36:02.589Z,1023.4
2022-12-11T07:37:01.688Z,1023.4
2022-12-11T07:38:01.438Z,1023.3
2022-12-11T07:39:01.805Z,1023.4
2022-12-11T07:40:01.181Z,1023.4
2022-12-11T07:41:02.098Z,1023.4
2022-12-11T07:42:01.173Z,1023.4
2022-12-11T07:43:01.188Z,1023.4
2022-12-11T07:44:02.992Z,1023.3
2022-12-11T07:45:01.519Z,1023.4
2022-12-11T07:46:02.790Z,1023.3
2022-12-11T07:47:01.352Z,1023.4
2022-12-11T07:48:01.541Z,1023.4
2022-12-11T07:49:01.215Z,1023.4
2022-12-11T07:50:01.274Z,1023.3
2022-12-11T07:51:07.286Z,1023.3
2022-12-11T07:52:01.166Z,1023.3
2022-12-11T07:53:01.165Z,1023.3
2022-12-11T07:54:03.865Z,1023.3
2022-12-11T07:55:01.177Z,1023.3
2022-12-11T07:56:01.260Z,1023.3
2022-12-11T07:57:01.651Z,1023.2
2022-12-11T07:58:01.238Z,1023.2
2022-12-11T07:59:02.965Z,1023.2
2022-12-11T08:00:01.612Z,1023.2
2022-12-11T08:01:01.694Z,1023.2
2022-12-11T08:02:01.550Z,1023.2
2022-12-11T08:03:01.228Z,1023.2
2022-12-11T08:04:02.820Z,1023.2
2022-12-11T08:05:01.514Z,1023.1
2022-12-11T08:06:01.511Z,1023.2
2022-12-11T08:07:01.528Z,1023.2
2022-12-11T08:08:01.429Z,1023.2
2022-12-11T08:09:04.757Z,1023.1
2022-12-11T08:10:01.909Z,1023.1
2022-12-11T08:11:01.939Z,1023.1
2022-12-11T08:12:01.169Z,1023.1
2022-12-11T08:13:01.181Z,1023.1
2022-12-11T08:14:01.199Z,1023.1
2022-12-11T08:15:01.532Z,1023.1
2022-12-11T08:16:03.462Z,1023.1
2022-12-11T08:17:01.611Z,1023.1
2022-12-11T08:18:01.535Z,1023.1
2022-12-11T08:19:01.735Z,1023.1
2022-12-11T08:20:01.578Z,1023.0
2022-12-11T08:21:04.131Z,1023.1
2022-12-11T08:22:01.512Z,1023.1
2022-12-11T08:23:01.863Z,1023.1
2022-12-11T08:24:01.174Z,1023.1
2022-12-11T08:25:01.542Z,1023.1
2022-12-11T08:26:03.018Z,1023.1
2022-12-11T08:27:01.181Z,1023.1
2022-12-11T08:28:01.698Z,1023.0
2022-12-11T08:29:02.148Z,1023.0
2022-12-11T08:30:01.909Z,1023.0
2022-12-11T08:31:03.890Z,1023.0
2022-12-11T08:32:01.350Z,1023.0
2022-12-11T08:33:01.156Z,1023.0
2022-12-11T08:34:01.585Z,1023.1
2022-12-11T08:35:01.760Z,1023.0
2022-12-11T08:36:03.094Z,1023.0
2022-12-11T08:37:01.992Z,1023.0
2022-12-11T08:38:01.316Z,1023.0
2022-12-11T08:39:01.536Z,1023.1
2022-12-11T08:40:01.615Z,1023.0
2022-12-11T08:41:08.998Z,1023.0
2022-12-11T08:42:01.169Z,1023.0
2022-12-11T08:43:01.233Z,1022.9
2022-12-11T08:44:01.519Z,1022.9
2022-12-11T08:45:01.602Z,1022.9
2022-12-11T08:46:01.611Z,1022.9
2022-12-11T08:47:01.200Z,1022.9
2022-12-11T08:48:01.530Z,1022.9
2022-12-11T08:49:01.193Z,1022.9
2022-12-11T08:50:01.213Z,1022.9
2022-12-11T08:51:03.310Z,1022.9
2022-12-11T08:52:03.500Z,1022.9
2022-12-11T08:53:01.179Z,1023.0
2022-12-11T08:54:01.510Z,1022.9
2022-12-11T08:55:01.188Z,1022.9
2022-12-11T08:56:02.261Z,1022.8
2022-12-11T08:57:01.922Z,1022.8
2022-12-11T08:58:01.549Z,1022.8
2022-12-11T08:59:01.527Z,1022.8
2022-12-11T09:00:01.498Z,1022.8
2022-12-11T09:01:06.608Z,1022.9
2022-12-11T09:02:01.183Z,1022.9
2022-12-11T09:03:01.548Z,1022.9
2022-12-11T09:04:01.347Z,1022.9
2022-12-11T09:05:01.202Z,1022.9
2022-12-11T09:06:04.558Z,1023.0
2022-12-11T09:07:01.163Z,1023.0
2022-12-11T09:08:01.263Z,1023.0
2022-12-11T09:09:02.602Z,1023.1
2022-12-11T09:10:02.168Z,1023.1
2022-12-11T09:11:04.527Z,1023.1
2022-12-11T09:12:01.548Z,1023.1
2022-12-11T09:13:01.506Z,1023.1
2022-12-11T09:14:05.427Z,1023.2
2022-12-11T09:15:01.319Z,1023.2
2022-12-11T09:16:03.802Z,1023.3
2022-12-11T09:17:01.173Z,1023.3
2022-12-11T09:18:01.188Z,1023.3
2022-12-11T09:19:01.197Z,1023.3
2022-12-11T09:20:04.138Z,1023.3
2022-12-11T09:21:03.628Z,1023.2
2022-12-11T09:22:01.711Z,1023.3
2022-12-11T09:23:01.195Z,1023.3
2022-12-11T09:24:01.532Z,1023.3
2022-12-11T09:25:01.668Z,1023.3
2022-12-11T09:26:03.094Z,1023.3
2022-12-11T09:27:02.504Z,1023.3
2022-12-11T09:28:01.520Z,1023.3
2022-12-11T09:29:02.881Z,1023.3
2022-12-11T09:30:01.208Z,1023.3
2022-12-11T09:31:01.247Z,1023.3
2022-12-11T09:32:01.521Z,1023.2
2022-12-11T09:33:01.173Z,1023.2
2022-12-11T09:34:06.269Z,1023.3
2022-12-11T09:35:01.546Z,1023.3
2022-12-11T09:36:03.349Z,1023.3
2022-12-11T09:37:01.506Z,1023.3
2022-12-11T09:38:01.669Z,1023.3
2022-12-11T09:39:03.308Z,1023.3
2022-12-11T09:40:05.706Z,1023.2
2022-12-11T09:41:11.680Z,1023.2
2022-12-11T09:42:07.800Z,1023.3
2022-12-11T09:43:08.533Z,1023.2
2022-12-11T09:44:13.128Z,1023.2
2022-12-11T09:45:03.448Z,1023.2
2022-12-11T09:46:06.978Z,1023.2
2022-12-11T09:47:01.862Z,1023.2
2022-12-11T09:48:02.076Z,1023.3
2022-12-11T09:49:03.002Z,1023.2
2022-12-11T09:50:15.874Z,1023.3
2022-12-11T09:51:12.299Z,1023.3
2022-12-11T09:52:10.201Z,1023.2
2022-12-11T09:53:10.600Z,1023.2
2022-12-11T09:54:03.800Z,1023.2
2022-12-11T09:55:05.765Z,1023.2
2022-12-11T09:56:14.042Z,1023.2
2022-12-11T09:57:12.018Z,1023.2
2022-12-11T09:58:11.334Z,1023.2
2022-12-11T09:59:12.420Z,1023.2
2022-12-11T10:00:13.180Z,1023.2
2022-12-11T10:01:08.804Z,1023.2
2022-12-11T10:02:15.448Z,1023.2
2022-12-11T10:03:20.585Z,1023.2
2022-12-11T10:04:16.451Z,1023.2
2022-12-11T10:05:12.881Z,1023.2
2022-12-11T10:06:10.364Z,1023.2
2022-12-11T10:07:10.974Z,1023.2
2022-12-11T10:08:12.113Z,1023.3
2022-12-11T10:09:14.127Z,1023.3
2022-12-11T10:10:13.676Z,1023.3
2022-12-11T10:11:14.983Z,1023.3
2022-12-11T10:12:17.327Z,1023.3
2022-12-11T10:13:12.077Z,1023.2
2022-12-11T10:14:10.972Z,1023.2
2022-12-11T10:15:18.265Z,1023.3
2022-12-11T10:16:11.620Z,1023.2
2022-12-11T10:17:08.558Z,1023.2
2022-12-11T10:18:05.424Z,1023.1
2022-12-11T10:19:03.466Z,1023.1
2022-12-11T10:20:14.654Z,1023.1
2022-12-11T10:21:02.651Z,1023.0
2022-12-11T10:22:02.457Z,1023.0
2022-12-11T10:23:03.201Z,1023.0
2022-12-11T10:24:04.929Z,1023.0
2022-12-11T10:25:11.180Z,1022.9
2022-12-11T10:26:06.567Z,1023.0
2022-12-11T10:27:14.017Z,1022.9
2022-12-11T10:28:10.685Z,1022.8
2022-12-11T10:29:02.372Z,1022.9
2022-12-11T10:30:12.647Z,1022.9
2022-12-11T10:31:13.270Z,1022.8
2022-12-11T10:32:02.597Z,1022.9
2022-12-11T10:33:11.368Z,1022.9
2022-12-11T10:34:03.948Z,1022.9
2022-12-11T10:35:05.094Z,1023.0
2022-12-11T10:36:01.680Z,1023.0
2022-12-11T10:37:02.462Z,1023.1
2022-12-11T10:38:11.066Z,1023.1
2022-12-11T10:39:02.511Z,1023.1
2022-12-11T10:40:01.579Z,1023.1
2022-12-11T10:41:04.345Z,1023.1
2022-12-11T10:42:12.895Z,1023.2
2022-12-11T10:43:01.513Z,1023.2
2022-12-11T10:44:14.618Z,1023.3
2022-12-11T10:45:03.638Z,1023.3
2022-12-11T10:46:02.226Z,1023.3
2022-12-11T10:47:05.022Z,1023.3
2022-12-11T10:48:02.278Z,1023.3
2022-12-11T10:49:01.638Z,1023.3
2022-12-11T10:50:03.699Z,1023.3
2022-12-11T10:51:05.761Z,1023.3
2022-12-11T10:52:09.654Z,1023.3
2022-12-11T10:53:02.057Z,1023.3
2022-12-11T10:54:07.688Z,1023.3
2022-12-11T10:55:04.274Z,1023.3
2022-12-11T10:56:01.985Z,1023.4
2022-12-11T10:57:04.182Z,1023.3
2022-12-11T10:58:05.236Z,1023.3
2022-12-11T10:59:03.180Z,1023.3
2022-12-11T11:00:03.664Z,1023.3
2022-12-11T11:01:05.475Z,1023.2
2022-12-11T11:02:02.067Z,1023.2
2022-12-11T11:03:02.683Z,1023.2
2022-12-11T11:04:05.016Z,1023.2
2022-12-11T11:05:12.750Z,1023.2
2022-12-11T11:06:04.413Z,1023.2
2022-12-11T11:07:02.231Z,1023.2
2022-12-11T11:08:10.340Z,1023.2
2022-12-11T11:09:02.832Z,1023.2
2022-12-11T11:10:15.080Z,1023.2
2022-12-11T11:11:01.199Z,1023.2
2022-12-11T11:12:07.442Z,1023.1
2022-12-11T11:13:02.289Z,1023.2
2022-12-11T11:14:13.204Z,1023.1
2022-12-11T11:15:06.269Z,1023.2
2022-12-11T11:16:04.277Z,1023.2
2022-12-11T11:17:01.183Z,1023.1
2022-12-11T11:18:11.004Z,1023.1
2022-12-11T11:19:01.521Z,1023.1
2022-12-11T11:20:13.368Z,1023.1
2022-12-11T11:21:02.540Z,1023.2
2022-12-11T11:22:05.031Z,1023.2
2022-12-11T11:23:04.314Z,1023.3
2022-12-11T11:24:02.552Z,1023.2
2022-12-11T11:25:01.851Z,1023.2
2022-12-11T11:26:07.095Z,1023.2
2022-12-11T11:27:13.231Z,1023.1
2022-12-11T11:28:05.349Z,1023.1
2022-12-11T11:29:01.296Z,1023.1
2022-12-11T11:30:05.827Z,1023.1
2022-12-11T11:31:05.053Z,1023.1
2022-12-11T11:32:16.773Z,1023.1
2022-12-11T11:33:04.772Z,1023.1
2022-12-11T11:34:06.298Z,1023.1
2022-12-11T11:35:16.174Z,1023.1
2022-12-11T11:36:03.783Z,1023.1
2022-12-11T11:37:01.337Z,1023.1
2022-12-11T11:38:11.631Z,1023.1
2022-12-11T11:39:18.073Z,1023.1
2022-12-11T11:40:10.708Z,1023.1
2022-12-11T11:41:14.906Z,1023.2
2022-12-11T11:42:10.011Z,1023.2
2022-12-11T11:43:12.363Z,1023.2
2022-12-11T11:44:06.176Z,1023.2
2022-12-11T11:45:09.320Z,1023.1
2022-12-11T11:46:07.931Z,1023.1
2022-12-11T11:47:08.305Z,1023.0
2022-12-11T11:48:12.366Z,1022.9
2022-12-11T11:49:16.096Z,1022.9
2022-12-11T11:50:07.965Z,1022.9
2022-12-11T11:51:12.068Z,1022.9
2022-12-11T11:52:17.007Z,1022.8
2022-12-11T11:53:09.973Z,1022.8
2022-12-11T11:54:08.414Z,1022.8
2022-12-11T11:55:08.379Z,1022.7
2022-12-11T11:56:12.482Z,1022.7
2022-12-11T11:57:13.006Z,1022.7
2022-12-11T11:58:09.264Z,1022.7
2022-12-11T11:59:10.699Z,1022.6
2022-12-11T12:00:07.141Z,1022.6
2022-12-11T12:01:01.162Z,1022.6
2022-12-11T12:02:01.672Z,1022.6
2022-12-11T12:03:08.971Z,1022.5
2022-12-11T12:04:03.244Z,1022.5
2022-12-11T12:05:02.554Z,1022.5
2022-12-11T12:06:14.705Z,1022.5
2022-12-11T12:07:19.552Z,1022.5
2022-12-11T12:08:11.096Z,1022.5
2022-12-11T12:09:12.657Z,1022.5
2022-12-11T12:10:14.033Z,1022.5
2022-12-11T12:11:08.919Z,1022.5
2022-12-11T12:12:10.709Z,1022.5
2022-12-11T12:13:23.920Z,1022.5
2022-12-11T12:14:29.120Z,1022.5
2022-12-11T12:15:14.615Z,1022.4
2022-12-11T12:16:01.659Z,1022.5
2022-12-11T12:17:13.400Z,1022.4
2022-12-11T12:18:14.702Z,1022.4
2022-12-11T12:19:10.396Z,1022.4
2022-12-11T12:20:16.113Z,1022.4
2022-12-11T12:21:12.744Z,1022.4
2022-12-11T12:22:14.455Z,1022.4
2022-12-11T12:23:17.620Z,1022.4
2022-12-11T12:24:17.141Z,1022.4
2022-12-11T12:25:14.596Z,1022.4
2022-12-11T12:26:08.174Z,1022.4
2022-12-11T12:27:29.224Z,1022.3
2022-12-11T12:28:16.492Z,1022.3